createdAt,value
2023-03-24T00:00:40.065Z,4.17
2023-03-24T00:05:44.307Z,4.02
2023-03-24T00:10:48.879Z,4.02
2023-03-24T00:15:52.118Z,3.97
2023-03-24T00:20:59.318Z,3.88
2023-03-24T00:26:06.211Z,3.83
2023-03-24T00:31:10.544Z,3.76
2023-03-24T00:36:14.226Z,3.62
2023-03-24T00:41:20.587Z,3.53
2023-03-24T00:46:28.291Z,3.59
2023-03-24T00:51:38.844Z,3.58
2023-03-24T00:56:43.953Z,3.54
2023-03-24T01:01:47.391Z,3.54
2023-03-24T01:06:52.720Z,3.56
2023-03-24T01:11:56.513Z,3.58
2023-03-24T01:17:01.163Z,3.55
2023-03-24T01:22:04.924Z,3.59
2023-03-24T01:27:08.769Z,3.58
2023-03-24T01:32:12.987Z,3.40
2023-03-24T01:37:16.582Z,3.71
2023-03-24T01:42:23.751Z,3.77
2023-03-24T01:47:26.924Z,3.58
2023-03-24T01:52:33.595Z,3.67
2023-03-24T01:57:42.697Z,3.89
2023-03-24T02:02:56.867Z,3.78
2023-03-24T02:08:19.265Z,3.70
2023-03-24T02:13:24.065Z,3.57
2023-03-24T02:18:33.442Z,3.64
2023-03-24T02:23:56.084Z,3.54
2023-03-24T02:29:20.690Z,3.41
2023-03-24T02:34:23.832Z,3.49
2023-03-24T02:40:08.645Z,4.08
2023-03-24T02:45:46.016Z,3.97
2023-03-24T02:50:53.335Z,3.88
2023-03-24T02:56:03.783Z,3.67
2023-03-24T03:01:11.240Z,3.62
2023-03-24T03:06:53.724Z,3.57
2023-03-24T03:12:00.857Z,3.43
2023-03-24T03:17:14.914Z,3.24
2023-03-24T03:22:23.979Z,3.17
2023-03-24T03:27:31.806Z,3.16
2023-03-24T03:32:41.255Z,3.12
2023-03-24T03:38:10.197Z,3.05
2023-03-24T03:43:13.524Z,3.04
2023-03-24T03:48:17.654Z,2.96
2023-03-24T03:53:27.566Z,2.99
2023-03-24T03:58:31.530Z,2.93
2023-03-24T04:03:46.506Z,2.81
2023-03-24T04:08:53.611Z,2.97
2023-03-24T04:14:14.656Z,3.33
2023-03-24T04:19:29.389Z,3.35
2023-03-24T04:25:02.492Z,3.50
2023-03-24T04:30:53.179Z,3.44
2023-03-24T04:36:42.638Z,3.47
2023-03-24T04:42:26.523Z,3.30
2023-03-24T04:47:34.302Z,3.42
2023-03-24T04:52:48.855Z,3.62
2023-03-24T04:57:54.113Z,3.64
2023-03-24T05:02:58.161Z,3.71
2023-03-24T05:08:04.539Z,3.89
2023-03-24T05:13:09.168Z,4.08
2023-03-24T05:18:28.099Z,5.02
2023-03-24T05:23:34.566Z,5.18
2023-03-24T05:28:38.412Z,5.25
2023-03-24T05:33:42.483Z,5.38
2023-03-24T05:38:51.288Z,5.81
2023-03-24T05:43:55.298Z,6.07
2023-03-24T05:48:58.988Z,6.30
2023-03-24T05:54:07.751Z,6.83
2023-03-24T05:59:23.116Z,7.06
2023-03-24T06:04:30.767Z,7.15
2023-03-24T06:09:42.769Z,8.14
2023-03-24T06:14:49.434Z,8.83
2023-03-24T06:19:52.777Z,9.92
2023-03-24T06:25:17.188Z,14.33
2023-03-24T06:30:31.324Z,16.32
2023-03-24T06:35:35.773Z,17.51
2023-03-24T06:40:46.741Z,18.11
2023-03-24T06:45:51.487Z,18.66
2023-03-24T06:50:58.708Z,18.91
2023-03-24T06:56:02.735Z,18.72
2023-03-24T07:01:15.316Z,19.86
2023-03-24T07:06:34.467Z,20.18
2023-03-24T07:11:47.761Z,22.25
2023-03-24T07:16:52.558Z,20.29
2023-03-24T07:22:29.516Z,20.72
2023-03-24T07:27:58.885Z,21.17
2023-03-24T07:33:04.385Z,21.26
2023-03-24T07:38:08.843Z,21.66
2023-03-24T07:43:12.997Z,21.96
2023-03-24T07:48:42.977Z,21.78
2023-03-24T07:53:48.107Z,21.53
2023-03-24T07:59:00.870Z,20.78
2023-03-24T08:04:14.486Z,20.69
2023-03-24T08:09:36.560Z,21.05
2023-03-24T08:14:39.953Z,20.77
2023-03-24T08:19:58.240Z,20.35
2023-03-24T08:25:03.996Z,19.97
2023-03-24T08:30:10.860Z,20.71
2023-03-24T08:35:16.194Z,20.86
2023-03-24T08:40:24.507Z,21.19
2023-03-24T08:45:31.143Z,21.08
2023-03-24T08:50:38.784Z,20.55
2023-03-24T08:55:43.658Z,20.79
2023-03-24T09:00:48.375Z,20.22
2023-03-24T09:05:51.994Z,20.54
2023-03-24T09:10:55.300Z,21.27
2023-03-24T09:16:02.395Z,21.38
2023-03-24T09:21:07.688Z,20.78
2023-03-24T09:26:10.923Z,21.54
2023-03-24T09:31:14.918Z,20.83
2023-03-24T09:36:18.708Z,21.44
2023-03-24T09:41:34.378Z,21.22
2023-03-24T09:46:42.139Z,22.48
2023-03-24T09:51:46.927Z,21.53
2023-03-24T09:56:52.313Z,21.51
2023-03-24T10:01:57.462Z,21.36
2023-03-24T10:07:26.152Z,21.20
2023-03-24T10:12:40.455Z,20.78
2023-03-24T10:18:05.099Z,21.30
2023-03-24T10:23:21.986Z,21.51
2023-03-24T10:28:40.684Z,22.35
2023-03-24T10:33:46.746Z,21.29
2023-03-24T10:38:50.317Z,21.52
2023-03-24T10:43:57.515Z,21.03
2023-03-24T10:49:18.259Z,21.85
2023-03-24T10:54:24.881Z,21.99
2023-03-24T10:59:37.098Z,22.27
2023-03-24T11:04:44.303Z,21.53
2023-03-24T11:10:19.515Z,21.45
2023-03-24T11:15:25.197Z,21.90
2023-03-24T11:20:36.603Z,21.81
2023-03-24T11:25:42.321Z,22.03
2023-03-24T11:30:57.348Z,19.95
2023-03-24T11:36:08.450Z,21.56
2023-03-24T11:41:27.540Z,22.54
2023-03-24T11:46:47.396Z,22.40
2023-03-24T11:52:02.001Z,21.94
2023-03-24T11:57:15.567Z,21.76
2023-03-24T12:02:46.417Z,22.02
2023-03-24T12:07:56.799Z,21.78
2023-03-24T12:13:32.281Z,22.35
2023-03-24T12:18:55.046Z,21.67
2023-03-24T12:24:03.020Z,21.68
2023-03-24T12:29:12.719Z,22.05
2023-03-24T12:34:39.351Z,22.52
2023-03-24T12:40:27.463Z,22.36
2023-03-24T12:45:31.443Z,22.58
2023-03-24T12:51:05.789Z,22.10
2023-03-24T12:56:13.019Z,22.03
2023-03-24T13:01:36.515Z,22.34
2023-03-24T13:06:53.640Z,22.72
2023-03-24T13:12:20.714Z,22.64
2023-03-24T13:17:45.299Z,22.67
2023-03-24T13:22:50.723Z,22.71
2023-03-24T13:27:54.909Z,23.13
2023-03-24T13:33:21.936Z,22.35
2023-03-24T13:38:48.730Z,22.34
2023-03-24T13:43:59.940Z,22.34
2023-03-24T13:49:07.205Z,21.57
2023-03-24T13:54:19.533Z,21.60
2023-03-24T13:59:32.175Z,21.71
2023-03-24T14:05:01.761Z,21.09
2023-03-24T14:10:17.864Z,21.17
2023-03-24T14:15:33.296Z,21.74
2023-03-24T14:20:43.246Z,21.30
2023-03-24T14:25:55.040Z,21.29
2023-03-24T14:31:13.577Z,20.17
2023-03-24T14:36:26.328Z,20.92
2023-03-24T14:41:34.677Z,20.67
2023-03-24T14:46:40.234Z,21.28
2023-03-24T14:51:56.153Z,21.20
2023-03-24T14:57:00.260Z,20.77
2023-03-24T15:02:27.073Z,20.47
2023-03-24T15:07:31.282Z,20.85
2023-03-24T15:12:35.347Z,20.17
2023-03-24T15:17:42.681Z,19.67
2023-03-24T15:22:46.841Z,19.03
2023-03-24T15:27:52.420Z,19.25
2023-03-24T15:32:56.178Z,20.72
2023-03-24T15:38:00.196Z,18.77
2023-03-24T15:43:07.198Z,18.56
2023-03-24T15:48:21.558Z,18.31
2023-03-24T15:53:30.504Z,17.79
2023-03-24T15:58:46.040Z,18.26
2023-03-24T16:03:49.877Z,17.62
2023-03-24T16:08:53.777Z,17.14
2023-03-24T16:13:57.206Z,16.63
2023-03-24T16:19:01.895Z,16.54
2023-03-24T16:24:05.790Z,16.23
2023-03-24T16:29:18.082Z,15.60
2023-03-24T16:34:22.794Z,15.62
2023-03-24T16:39:28.616Z,15.50
2023-03-24T16:44:32.066Z,14.99
2023-03-24T16:49:35.862Z,14.25
2023-03-24T16:54:40.371Z,13.97
2023-03-24T16:59:43.517Z,13.51
2023-03-24T17:04:47.978Z,13.13
2023-03-24T17:09:52.354Z,12.86
2023-03-24T17:14:56.257Z,12.38
2023-03-24T17:20:00.370Z,12.19
2023-03-24T17:25:04.930Z,11.79
2023-03-24T17:30:11.610Z,11.61
2023-03-24T17:35:18.552Z,11.27
2023-03-24T17:40:22.843Z,11.13
2023-03-24T17:45:25.953Z,10.90
2023-03-24T17:50:31.084Z,10.68
2023-03-24T17:55:34.783Z,10.45
2023-03-24T18:00:38.233Z,10.37
2023-03-24T18:05:43.643Z,10.16
2023-03-24T18:10:47.023Z,10.14
2023-03-24T18:15:50.788Z,10.28
2023-03-24T18:20:54.403Z,10.29
2023-03-24T18:26:01.254Z,10.27
2023-03-24T18:31:16.459Z,10.17
2023-03-24T18:36:26.863Z,10.14
2023-03-24T18:41:31.162Z,10.16
2023-03-24T18:46:37.127Z,10.10
2023-03-24T18:51:42.321Z,9.81
2023-03-24T18:56:46.488Z,9.61
2023-03-24T19:01:51.161Z,9.43
2023-03-24T19:06:54.617Z,9.23
2023-03-24T19:11:58.481Z,9.11
2023-03-24T19:17:02.469Z,9.31
2023-03-24T19:22:07.577Z,9.03
2023-03-24T19:27:11.808Z,8.93
2023-03-24T19:32:15.180Z,8.89
2023-03-24T19:37:20.518Z,9.02
2023-03-24T19:42:26.508Z,9.25
2023-03-24T19:47:30.112Z,9.36
2023-03-24T19:52:33.762Z,9.26
2023-03-24T19:57:37.619Z,9.24
2023-03-24T20:02:42.137Z,9.28
2023-03-24T20:07:46.168Z,9.27
2023-03-24T20:12:49.908Z,9.45
2023-03-24T20:17:53.701Z,9.43
2023-03-24T20:22:58.528Z,9.40
2023-03-24T20:28:01.811Z,9.06
2023-03-24T20:33:05.283Z,8.66
2023-03-24T20:38:08.868Z,8.38
2023-03-24T20:43:12.518Z,8.22
2023-03-24T20:48:16.757Z,8.10
2023-03-24T20:53:21.177Z,7.85
2023-03-24T20:58:25.192Z,7.79
2023-03-24T21:03:28.415Z,7.61
2023-03-24T21:08:32.349Z,7.44
2023-03-24T21:13:37.892Z,7.39
2023-03-24T21:18:42.951Z,7.39
2023-03-24T21:23:47.042Z,7.28
2023-03-24T21:28:50.284Z,7.10
2023-03-24T21:33:56.715Z,7.06
2023-03-24T21:39:00.564Z,6.95
2023-03-24T21:44:05.878Z,6.89
2023-03-24T21:49:11.423Z,6.81
2023-03-24T21:54:15.458Z,6.83
2023-03-24T21:59:18.633Z,6.89
2023-03-24T22:04:22.291Z,7.00
2023-03-24T22:09:28.092Z,6.90
2023-03-24T22:14:32.132Z,6.82
2023-03-24T22:19:35.978Z,6.79
2023-03-24T22:24:40.904Z,6.77
2023-03-24T22:29:44.706Z,6.68
2023-03-24T22:34:48.318Z,6.63
2023-03-24T22:39:51.611Z,6.56
2023-03-24T22:44:54.725Z,6.51
2023-03-24T22:49:57.787Z,6.65
2023-03-24T22:55:01.567Z,6.69
2023-03-24T23:00:06.788Z,6.64
2023-03-24T23:05:10.781Z,6.70
2023-03-24T23:10:14.099Z,6.61
2023-03-24T23:15:18.375Z,6.70
2023-03-24T23:20:23.100Z,6.70
2023-03-24T23:25:26.375Z,6.54
2023-03-24T23:30:30.083Z,6.37
2023-03-24T23:35:34.245Z,6.23
2023-03-24T23:40:38.229Z,6.33
2023-03-24T23:45:41.879Z,6.27
2023-03-24T23:50:49.840Z,6.43
2023-03-24T23:55:58.087Z,6.27
